Racecast

Jordynn Mardenborough-Davis

Virginia Beach Flames (VA) · - · Compare head to head

Athlete rating
Races 40
Seasons 3 2024 — 2026
Speed rating — all races

Track & Field

TF speed rating

2026 TF

Virginia Beach Flames (VA) · Grade -

Date Meet Event Result Place Rating Difficulty PR/SR Flags
2026-06-13 AAU Virginia District Qualifier - South 400m 51.51 2nd · 1st on team -0.033 ★PR SR
2026-06-13 AAU Virginia District Qualifier - South 200m 22.95 4th · 1st on team -0.033
2026-05-30 Va Beach Flames Invite 100m 11.45 2nd · 1st on team -0.023
2026-05-30 Va Beach Flames Invite 400m 52.85 1st · 1st on team -0.023
2026-05-30 Va Beach Flames Invite 200m 23.2 1st · 1st on team -0.023
2026-05-24 HR Hurricanes CAT 5 Invite 100m 11.37 4th · 3rd on team -0.035 ★PR SR
2026-05-24 HR Hurricanes CAT 5 Invite 200m 22.79 2nd · 2nd on team -0.035 ★PR SR
2026-05-24 HR Hurricanes CAT 5 Invite 400m 51.9 1st · 1st on team -0.035 PR SR
2026-05-24 HR Hurricanes CAT 5 Invite 100m 11.42 5th · 4th on team -0.035
2026-05-16 2026 Technique Relays 400m 52.76 1st · 1st on team -0.035 PR SR
2026-05-09 VA "Legends" T & F Youth Invite 200m 23.58 5th · 1st on team -0.033 PR SR
2026-05-09 VA "Legends" T & F Youth Invite 100m 12.08 9th · 2nd on team -0.033
2026-05-02 The DMV Track and Field Classic 100m 11.74 5th · 3rd on team -0.021 PR SR
2026-05-02 The DMV Track and Field Classic 200m 24.31 4th · 2nd on team -0.021 SR
2026-05-02 The DMV Track and Field Classic 100m 11.87 7th · 4th on team -0.021

2025 TF

Virginia Beach Flames (VA) · Grade -

Date Meet Event Result Place Rating Difficulty PR/SR Flags
2025-05-31 Va Beach Flames Invite 100m 12.01 11th · 2nd on team -0.023
2025-05-31 Va Beach Flames Invite 200m 24.72 6th · 1st on team -0.023
2025-05-31 Va Beach Flames Invite 100m 11.96 10th · 1st on team -0.023
2025-04-27 TRACK 757 Classic 100m 11.78 9th · 1st on team -0.029 PR SR
2025-04-27 TRACK 757 Classic 100m 11.88 11th · 2nd on team -0.029
2025-04-27 TRACK 757 Classic 200m 24.07 2nd · 2nd on team -0.029 SR
2025-03-07 AAU Indoor National Championships 200m 24.16 39th · 1st on team -0.036 SR
2025-02-16 HRH Winter Storm Classic 55m 7.03 7th · 1st on team -0.014 ★PR SR
2025-02-16 HRH Winter Storm Classic 200m 24.84 2nd · 1st on team -0.014 SR
2025-02-16 HRH Winter Storm Classic 55m 7.05 8th · 2nd on team -0.014

2024 TF

Virginia Beach Flames (VA) · Grade -

Date Meet Event Result Place Rating Difficulty PR/SR Flags
2024-06-29 AAU Region 05 National Qualifier 100m 12.12 13th · 2nd on team -0.034
2024-06-29 AAU Region 05 National Qualifier 200m 24.35 15th · 2nd on team -0.034
2024-06-29 AAU Region 05 National Qualifier 200m 24.04 11th · 1st on team -0.034 PR SR
2024-06-29 AAU Region 05 National Qualifier 100m 12 10th · 1st on team -0.034
2024-06-08 AAU Virginia South District Qualifier 100m 12.18 7th · 1st on team -0.029
2024-06-08 AAU Virginia South District Qualifier 200m 24.95 7th · 1st on team -0.029
2024-06-01 VB Flames Invitational 100m 11.96 8th · 1st on team -0.023 PR SR
2024-06-01 VB Flames Invitational 100m 11.97 9th · 2nd on team -0.023
2024-06-01 VB Flames Invitational 200m 24.36 3rd · 1st on team -0.023
2024-05-11 2024 EE Lightning "Legends" Invite lj DNS -0.043
2024-05-11 2024 EE Lightning "Legends" Invite 100m 12.2 2nd · 1st on team -0.043
2024-05-11 2024 EE Lightning "Legends" Invite 200m 24.56 1st · 1st on team -0.043
2024-05-05 Queen Harrison Invite lj DNS -0.033
2024-05-05 Queen Harrison Invite 100m 12.1 1st · 1st on team -0.033 PR SR
2024-05-05 Queen Harrison Invite 200m 24.25 1st · 1st on team -0.033 PR SR